Time;durP1;ratioP1;P1;durP2;ratioP2;P2;SDS_P1;SDS_P2;PMS_P1;PMS_P2;Temp;Humidity;BMP_temperature;BMP_pressure;BME280_temperature;BME280_humidity;BME280_pressure;Samples;Min_cycle;Max_cycle;Signal;HPM_P1;HPM_P2
2022/01/20 00:01:50;;;;;;;1.92;1.48;;;18.80;32.70;;;;;;5085310;28;47021;-19
2022/01/20 00:04:22;;;;;;;1.40;1.30;;;18.80;32.70;;;;;;5085221;28;46929;-19
2022/01/20 00:07:27;;;;;;;1.38;1.30;;;18.80;32.70;;;;;;5084872;28;48221;-19
2022/01/20 00:26:17;;;;;;;1.45;1.35;;;18.80;32.70;;;;;;5082377;28;46953;-19
2022/01/20 00:28:47;;;;;;;1.17;1.15;;;18.80;32.70;;;;;;5086383;27;47013;-19
2022/01/20 00:31:30;;;;;;;1.75;1.40;;;18.80;32.60;;;;;;5088096;28;47756;-18
2022/01/20 00:34:10;;;;;;;1.30;1.20;;;18.80;32.70;;;;;;5087774;28;46981;-19
2022/01/20 00:39:22;;;;;;;1.60;1.50;;;18.80;32.70;;;;;;5081303;28;46932;-19
2022/01/20 00:41:49;;;;;;;1.30;1.20;;;18.80;32.70;;;;;;5087840;28;46853;-19
2022/01/20 00:44:15;;;;;;;1.15;1.15;;;18.80;32.70;;;;;;5069809;28;46777;-20
2022/01/20 00:46:42;;;;;;;2.72;1.60;;;18.80;32.70;;;;;;5075796;28;46881;-19
2022/01/20 00:49:09;;;;;;;1.30;1.20;;;18.80;32.70;;;;;;5070019;27;48492;-18
2022/01/20 00:51:35;;;;;;;1.35;1.23;;;18.80;32.70;;;;;;5070382;28;46951;-19
2022/01/20 00:54:02;;;;;;;1.40;1.30;;;18.80;32.70;;;;;;5067333;28;46993;-19
2022/01/20 00:56:30;;;;;;;1.30;1.20;;;18.80;32.70;;;;;;5073817;28;46831;-19
2022/01/20 00:58:57;;;;;;;1.13;1.08;;;18.80;32.70;;;;;;5072233;28;46916;-18
2022/01/20 01:01:24;;;;;;;1.88;1.35;;;18.80;32.70;;;;;;5070763;28;46913;-18
2022/01/20 01:03:51;;;;;;;1.50;1.40;;;18.80;32.70;;;;;;5066863;28;46996;-19
2022/01/20 01:06:30;;;;;;;1.40;1.30;;;18.80;32.70;;;;;;5072090;28;46907;-19
2022/01/20 01:08:56;;;;;;;1.30;1.20;;;18.80;32.70;;;;;;5072382;28;49187;-19
2022/01/20 01:11:24;;;;;;;1.50;1.30;;;18.80;32.70;;;;;;5071567;28;47256;-19
2022/01/20 01:13:53;;;;;;;1.40;1.30;;;18.80;32.70;;;;;;5066696;28;47022;-19
2022/01/20 01:16:23;;;;;;;1.48;1.38;;;18.80;32.80;;;;;;5072236;28;46893;-19
2022/01/20 01:21:45;;;;;;;1.95;1.00;;;18.80;32.70;;;;;;5068964;28;46943;-19
2022/01/20 01:24:12;;;;;;;1.30;1.20;;;18.80;32.70;;;;;;5066686;28;46898;-14
2022/01/20 01:26:38;;;;;;;1.20;1.20;;;18.80;32.60;;;;;;5074736;28;46923;-13
2022/01/20 01:29:21;;;;;;;1.30;1.20;;;18.80;32.60;;;;;;5072370;28;48038;-14
2022/01/20 01:31:48;;;;;;;1.50;1.40;;;18.80;32.70;;;;;;5072389;28;46873;-14
2022/01/20 01:34:15;;;;;;;1.48;1.38;;;18.80;32.70;;;;;;5066529;28;47055;-14
2022/01/20 01:36:56;;;;;;;1.77;1.40;;;18.80;32.70;;;;;;5075220;28;47135;-15
2022/01/20 01:39:23;;;;;;;1.27;1.17;;;18.80;32.70;;;;;;5069854;28;49099;-14
2022/01/20 01:41:50;;;;;;;1.38;1.27;;;18.80;32.70;;;;;;5072462;28;47053;-14
2022/01/20 01:44:23;;;;;;;1.40;1.30;;;18.80;32.70;;;;;;5066183;28;46910;-14
2022/01/20 01:46:50;;;;;;;1.65;1.25;;;18.80;32.70;;;;;;5076211;28;46894;-14
2022/01/20 01:49:17;;;;;;;1.25;1.20;;;18.80;32.70;;;;;;5071672;28;47790;-14
2022/01/20 01:51:44;;;;;;;1.40;1.30;;;18.70;32.80;;;;;;5072598;28;47128;-14
2022/01/20 01:54:11;;;;;;;1.38;1.20;;;18.70;32.80;;;;;;5066324;28;46815;-14
2022/01/20 01:56:38;;;;;;;1.48;1.30;;;18.70;32.90;;;;;;5074429;28;46912;-13
2022/01/20 01:59:05;;;;;;;1.40;1.30;;;18.70;32.90;;;;;;5073345;28;49065;-14
2022/01/20 02:01:36;;;;;;;1.50;1.40;;;18.70;32.70;;;;;;5066323;28;47298;-14
2022/01/20 02:04:12;;;;;;;1.25;1.25;;;18.70;32.90;;;;;;5066531;28;47005;-13
2022/01/20 02:09:42;;;;;;;1.38;1.27;;;18.70;32.80;;;;;;5044027;28;47581;-13
2022/01/20 02:18:00;;;;;;;1.10;1.10;;;18.70;32.80;;;;;;5079389;28;46937;-14
2022/01/20 02:20:29;;;;;;;1.10;1.10;;;18.70;32.80;;;;;;5066205;28;47568;-14
2022/01/20 02:22:56;;;;;;;1.13;1.02;;;18.80;32.80;;;;;;5074023;28;47212;-14
2022/01/20 02:25:25;;;;;;;1.30;1.20;;;18.80;32.80;;;;;;5066361;28;46933;-14
2022/01/20 02:27:52;;;;;;;1.40;1.30;;;18.70;32.70;;;;;;5066205;28;46827;-14
2022/01/20 02:30:20;;;;;;;1.30;1.20;;;18.70;32.80;;;;;;5065738;28;46965;-13
2022/01/20 02:32:52;;;;;;;1.13;1.13;;;18.70;32.80;;;;;;5074168;28;46853;-14
2022/01/20 02:35:18;;;;;;;1.42;1.33;;;18.70;32.80;;;;;;5065932;28;46909;-14
2022/01/20 02:37:48;;;;;;;1.65;1.45;;;18.70;32.80;;;;;;5066223;28;47140;-13
2022/01/20 02:40:34;;;;;;;1.10;1.10;;;18.80;32.80;;;;;;5065837;28;47141;-14
2022/01/20 02:45:45;;;;;;;1.23;1.13;;;18.80;32.80;;;;;;5063062;28;46870;-14
2022/01/20 02:48:13;;;;;;;1.23;0.90;;;18.80;32.70;;;;;;5066505;28;46946;-14
2022/01/20 02:50:39;;;;;;;1.30;1.20;;;18.80;32.80;;;;;;5064456;28;49044;-13
2022/01/20 02:53:08;;;;;;;1.33;1.23;;;18.70;32.80;;;;;;5075254;28;47006;-14
2022/01/20 02:55:34;;;;;;;1.00;1.00;;;18.80;32.80;;;;;;5065581;28;46920;-13
2022/01/20 02:58:01;;;;;;;0.90;0.90;;;18.80;32.80;;;;;;5067264;28;46842;-13
2022/01/20 03:00:28;;;;;;;0.90;0.90;;;18.80;32.80;;;;;;5065268;28;46886;-14
2022/01/20 03:02:55;;;;;;;1.08;0.98;;;18.80;32.80;;;;;;5076164;28;47129;-14
2022/01/20 03:05:22;;;;;;;1.00;1.00;;;18.80;32.80;;;;;;5065695;28;46901;-14
2022/01/20 03:07:49;;;;;;;1.10;1.00;;;18.70;32.70;;;;;;5067595;28;46892;-13
2022/01/20 03:10:17;;;;;;;1.00;1.00;;;18.70;32.80;;;;;;5065213;28;48337;-14
2022/01/20 03:12:44;;;;;;;0.95;0.95;;;18.70;32.90;;;;;;5076250;28;47030;-14
2022/01/20 03:15:10;;;;;;;1.10;1.10;;;18.70;32.80;;;;;;5065289;28;46921;-14
2022/01/20 03:17:37;;;;;;;1.20;1.10;;;18.70;32.80;;;;;;5068129;28;46878;-14
2022/01/20 03:20:05;;;;;;;1.15;1.02;;;18.70;32.70;;;;;;5064869;28;49252;-13
2022/01/20 03:22:31;;;;;;;1.27;1.17;;;18.80;32.80;;;;;;5076476;28;46943;-14
2022/01/20 03:24:58;;;;;;;1.10;1.00;;;18.80;32.80;;;;;;5065068;28;46788;-13
2022/01/20 03:27:26;;;;;;;1.33;1.00;;;18.70;33.40;;;;;;5068831;28;47268;-13
2022/01/20 03:29:53;;;;;;;0.80;0.80;;;18.70;32.80;;;;;;5064712;28;49054;-13
2022/01/20 03:32:19;;;;;;;0.90;0.90;;;18.70;32.80;;;;;;5077151;28;47128;-13
2022/01/20 03:34:46;;;;;;;1.05;1.00;;;18.70;32.80;;;;;;5064440;28;46942;-13
2022/01/20 03:37:13;;;;;;;0.95;0.95;;;18.70;32.80;;;;;;5069244;28;47255;-14
2022/01/20 03:39:40;;;;;;;0.95;0.95;;;18.80;32.90;;;;;;5064687;28;48120;-13
2022/01/20 03:42:06;;;;;;;1.20;1.13;;;18.70;32.70;;;;;;5076821;28;47671;-13
2022/01/20 03:44:34;;;;;;;1.27;1.17;;;18.70;32.80;;;;;;5065133;28;46841;-14
2022/01/20 03:47:03;;;;;;;0.98;0.98;;;18.70;32.90;;;;;;5069258;28;46819;-14
2022/01/20 03:49:36;;;;;;;0.95;0.95;;;18.70;32.90;;;;;;5064616;28;47932;-14
2022/01/20 03:52:04;;;;;;;1.05;1.05;;;18.70;33.50;;;;;;5076018;28;46886;-14
2022/01/20 03:54:30;;;;;;;1.10;1.10;;;18.80;33.50;;;;;;5066191;28;46843;-14
2022/01/20 03:56:57;;;;;;;1.10;1.00;;;18.80;33.50;;;;;;5069833;28;47230;-13
2022/01/20 03:59:24;;;;;;;0.80;0.80;;;18.80;32.80;;;;;;5064489;28;47715;-14
2022/01/20 04:01:52;;;;;;;0.80;0.80;;;18.80;32.80;;;;;;5074313;27;46847;-14
2022/01/20 04:04:18;;;;;;;1.10;1.05;;;18.70;33.40;;;;;;5071862;28;46995;-14
2022/01/20 04:06:45;;;;;;;0.95;0.95;;;18.70;32.90;;;;;;5073999;28;47356;-13
2022/01/20 04:09:12;;;;;;;1.05;1.05;;;18.70;32.90;;;;;;5067871;28;47827;-14
2022/01/20 04:11:39;;;;;;;0.77;0.77;;;18.80;32.90;;;;;;5075606;28;47010;-14
2022/01/20 04:14:06;;;;;;;1.02;1.02;;;18.80;32.90;;;;;;5074043;28;46840;-14
2022/01/20 04:16:36;;;;;;;0.80;0.80;;;18.80;32.90;;;;;;5074459;28;46902;-13
2022/01/20 04:19:07;;;;;;;1.10;0.93;;;18.80;32.90;;;;;;5068042;28;48004;-13
2022/01/20 04:21:34;;;;;;;0.80;0.80;;;18.80;33.50;;;;;;5075005;28;46865;-14
2022/01/20 04:24:01;;;;;;;0.90;0.90;;;18.70;32.80;;;;;;5075258;28;46892;-13
2022/01/20 04:26:28;;;;;;;1.20;1.10;;;18.70;32.90;;;;;;5074376;28;47136;-13
2022/01/20 04:28:56;;;;;;;0.90;0.90;;;18.70;32.90;;;;;;5067898;28;48824;-14
2022/01/20 04:31:23;;;;;;;0.90;0.90;;;18.70;32.90;;;;;;5073688;28;46920;-14
2022/01/20 04:33:50;;;;;;;0.82;0.82;;;18.70;32.90;;;;;;5077266;28;46890;-13
2022/01/20 04:36:18;;;;;;;0.88;0.88;;;18.70;32.80;;;;;;5072522;28;47006;-14
2022/01/20 04:38:45;;;;;;;0.60;0.60;;;18.80;32.90;;;;;;5069285;28;47868;-14
2022/01/20 04:41:12;;;;;;;0.80;0.80;;;18.70;33.40;;;;;;5071302;28;46909;-14
2022/01/20 04:43:38;;;;;;;0.80;0.80;;;18.70;32.90;;;;;;5073340;28;46851;-14
2022/01/20 04:46:11;;;;;;;1.00;1.00;;;18.70;32.90;;;;;;5069563;28;47306;-13
2022/01/20 04:48:49;;;;;;;0.90;0.90;;;18.70;32.90;;;;;;5067477;28;48157;-13
2022/01/20 04:57:16;;;;;;;0.80;0.80;;;18.70;32.90;;;;;;5069919;28;46807;-14
2022/01/20 04:59:43;;;;;;;1.65;1.10;;;18.70;32.90;;;;;;5067219;28;48809;-14
2022/01/20 05:02:10;;;;;;;0.80;0.80;;;18.70;33.00;;;;;;5078648;28;47423;-14
2022/01/20 05:04:37;;;;;;;0.90;0.90;;;18.70;33.00;;;;;;5067080;28;46793;-13
2022/01/20 05:07:06;;;;;;;0.75;0.75;;;18.70;33.00;;;;;;5070422;28;47076;-14
2022/01/20 05:09:32;;;;;;;0.90;0.90;;;18.70;33.00;;;;;;5067323;28;48897;-14
2022/01/20 05:12:01;;;;;;;0.88;0.88;;;18.70;33.00;;;;;;5077485;28;47137;-14
2022/01/20 05:14:28;;;;;;;0.90;0.90;;;18.70;33.00;;;;;;5066783;27;46934;-13
2022/01/20 05:16:55;;;;;;;0.90;0.85;;;18.70;32.90;;;;;;5070508;28;46900;-14
2022/01/20 05:19:22;;;;;;;0.90;0.85;;;18.70;33.00;;;;;;5066784;28;49009;-14
2022/01/20 05:21:49;;;;;;;0.70;0.70;;;18.70;33.00;;;;;;5075805;28;46987;-14
2022/01/20 05:24:17;;;;;;;0.88;0.88;;;18.70;33.00;;;;;;5069354;28;46825;-13
2022/01/20 05:26:44;;;;;;;0.98;0.98;;;18.70;33.00;;;;;;5070894;28;46923;-14
2022/01/20 05:29:10;;;;;;;0.90;0.90;;;18.70;33.00;;;;;;5066458;28;47074;-14
2022/01/20 05:31:37;;;;;;;0.95;0.95;;;18.70;33.00;;;;;;5074094;28;47239;-13
2022/01/20 05:34:04;;;;;;;0.77;0.77;;;18.70;33.00;;;;;;5071912;28;47040;-14
2022/01/20 05:36:30;;;;;;;0.80;0.80;;;18.70;33.00;;;;;;5071299;28;46923;-13
2022/01/20 05:38:57;;;;;;;0.90;0.90;;;18.70;33.00;;;;;;5066751;28;48213;-13
2022/01/20 05:41:25;;;;;;;0.88;0.88;;;18.60;33.00;;;;;;5067057;28;46824;-13
2022/01/20 05:43:52;;;;;;;0.80;0.80;;;18.60;33.10;;;;;;5066955;28;46913;-13
2022/01/20 05:46:23;;;;;;;0.93;0.93;;;18.60;33.00;;;;;;5067332;28;46879;-14
2022/01/20 05:48:50;;;;;;;0.70;0.70;;;18.60;33.10;;;;;;5066582;28;48221;-15
2022/01/20 05:51:16;;;;;;;0.93;0.80;;;18.70;33.10;;;;;;5066933;28;47420;-14
2022/01/20 05:53:43;;;;;;;0.80;0.80;;;18.70;33.10;;;;;;5066967;28;46858;-14
2022/01/20 05:56:10;;;;;;;0.77;0.77;;;18.70;33.00;;;;;;5066803;28;46941;-15
2022/01/20 05:58:38;;;;;;;0.93;0.93;;;18.70;33.10;;;;;;5066513;28;49033;-15
2022/01/20 06:01:05;;;;;;;0.77;0.77;;;18.60;33.00;;;;;;5066906;28;47414;-15
2022/01/20 06:03:37;;;;;;;0.98;0.98;;;18.70;33.10;;;;;;5066409;28;47002;-14
2022/01/20 06:06:04;;;;;;;0.85;0.70;;;18.70;33.10;;;;;;5067232;28;46865;-15
2022/01/20 06:08:31;;;;;;;0.77;0.77;;;18.70;33.10;;;;;;5066164;28;47825;-15
2022/01/20 06:10:58;;;;;;;1.05;1.00;;;18.70;33.00;;;;;;5066713;28;47226;-15
2022/01/20 06:13:24;;;;;;;0.77;0.77;;;18.70;33.00;;;;;;5066300;28;46965;-15
2022/01/20 06:15:52;;;;;;;0.90;0.90;;;18.70;33.00;;;;;;5066661;28;46924;-15
2022/01/20 06:18:19;;;;;;;0.80;0.80;;;18.70;33.00;;;;;;5066251;28;48786;-15
2022/01/20 06:20:46;;;;;;;0.80;0.80;;;18.60;33.00;;;;;;5066096;28;47569;-15
2022/01/20 06:23:13;;;;;;;0.75;0.75;;;18.60;33.00;;;;;;5066050;28;46877;-15
2022/01/20 06:25:41;;;;;;;0.82;0.82;;;18.70;33.10;;;;;;5065152;28;47286;-14
2022/01/20 06:28:08;;;;;;;1.15;1.00;;;18.70;33.00;;;;;;5065990;28;47276;-15
2022/01/20 06:30:35;;;;;;;0.68;0.68;;;18.70;33.00;;;;;;5066008;28;47493;-15
2022/01/20 06:33:03;;;;;;;0.70;0.70;;;18.70;33.00;;;;;;5065437;28;46937;-14
2022/01/20 06:35:30;;;;;;;0.88;0.88;;;18.70;33.00;;;;;;5066345;28;46908;-15
2022/01/20 06:37:56;;;;;;;0.95;0.90;;;18.70;33.00;;;;;;5064798;28;49057;-15
2022/01/20 06:40:23;;;;;;;0.70;0.70;;;18.70;33.10;;;;;;5064222;28;47021;-15
2022/01/20 06:42:50;;;;;;;0.70;0.70;;;18.70;33.00;;;;;;5064157;28;46851;-15
2022/01/20 06:45:18;;;;;;;0.82;0.82;;;18.70;33.10;;;;;;5064566;28;46683;-15
2022/01/20 06:47:44;;;;;;;0.63;0.63;;;18.70;32.80;;;;;;5082748;28;48817;-15
2022/01/20 06:50:13;;;;;;;0.77;0.77;;;18.70;33.00;;;;;;5086002;28;46918;-16
2022/01/20 06:52:40;;;;;;;0.80;0.80;;;18.70;33.00;;;;;;5085879;28;46889;-15
2022/01/20 06:55:10;;;;;;;0.70;0.70;;;18.70;33.00;;;;;;5065906;28;46929;-15
2022/01/20 06:57:37;;;;;;;0.65;0.65;;;18.60;33.00;;;;;;5064943;28;47880;-15
2022/01/20 07:00:04;;;;;;;0.80;0.80;;;18.60;33.10;;;;;;5064890;28;46920;-15
2022/01/20 07:02:31;;;;;;;0.77;0.77;;;18.60;33.00;;;;;;5065668;28;46923;-15
2022/01/20 07:04:58;;;;;;;0.90;0.90;;;18.70;33.10;;;;;;5066089;28;47420;-15
2022/01/20 07:07:26;;;;;;;0.77;0.77;;;18.70;33.10;;;;;;5065634;28;47997;-14
2022/01/20 07:09:53;;;;;;;0.85;0.85;;;18.70;33.00;;;;;;5065815;28;47229;-15
2022/01/20 07:12:19;;;;;;;0.70;0.70;;;18.70;33.00;;;;;;5065418;28;46831;-15
2022/01/20 07:14:46;;;;;;;0.68;0.68;;;18.70;33.10;;;;;;5065137;28;46803;-15
2022/01/20 07:17:13;;;;;;;0.80;0.80;;;18.70;33.00;;;;;;5065581;28;49043;-14
2022/01/20 07:19:39;;;;;;;0.75;0.68;;;18.70;33.10;;;;;;5065001;28;47159;-14
2022/01/20 07:22:06;;;;;;;0.70;0.70;;;18.70;33.10;;;;;;5065829;28;47038;-14
2022/01/20 07:24:34;;;;;;;0.85;0.85;;;18.70;33.00;;;;;;5065232;28;47299;-15
2022/01/20 07:27:01;;;;;;;0.60;0.60;;;18.70;32.90;;;;;;5064668;28;47812;-15
2022/01/20 07:29:27;;;;;;;0.98;0.82;;;18.70;33.00;;;;;;5065466;28;46972;-16
2022/01/20 07:31:54;;;;;;;0.95;0.80;;;18.70;33.00;;;;;;5065228;28;46865;-14
2022/01/20 07:34:21;;;;;;;0.90;0.90;;;18.70;33.00;;;;;;5064985;28;46855;-15
2022/01/20 07:36:48;;;;;;;0.60;0.60;;;18.70;33.00;;;;;;5064273;28;47910;-14
2022/01/20 07:39:14;;;;;;;0.68;0.68;;;18.70;33.10;;;;;;5064956;28;46891;-15
2022/01/20 07:41:43;;;;;;;0.90;0.90;;;18.70;33.10;;;;;;5065067;28;46917;-15
2022/01/20 07:44:10;;;;;;;0.70;0.70;;;18.70;33.10;;;;;;5065230;28;47027;-14
2022/01/20 07:46:37;;;;;;;0.80;0.80;;;18.70;33.00;;;;;;5064800;28;49035;-15
2022/01/20 07:49:04;;;;;;;0.80;0.80;;;18.70;33.00;;;;;;5064869;28;46987;-14
2022/01/20 07:51:31;;;;;;;0.85;0.85;;;18.70;33.00;;;;;;5065088;28;46923;-15
2022/01/20 07:53:57;;;;;;;0.90;0.90;;;18.70;33.00;;;;;;5064819;28;46972;-15
2022/01/20 07:56:24;;;;;;;0.80;0.80;;;18.70;33.10;;;;;;5064998;28;49059;-15
2022/01/20 07:58:52;;;;;;;0.93;0.88;;;18.70;33.10;;;;;;5064754;28;46915;-15
2022/01/20 08:01:19;;;;;;;0.98;0.98;;;18.70;33.10;;;;;;5065188;28;46779;-15
2022/01/20 08:03:45;;;;;;;0.90;0.90;;;18.70;32.70;;;;;;5064970;28;46823;-15
2022/01/20 08:06:12;;;;;;;1.08;1.08;;;18.70;33.00;;;;;;5064986;28;49087;-15
2022/01/20 08:08:39;;;;;;;1.35;1.00;;;18.70;33.00;;;;;;5064520;28;47088;-15
2022/01/20 08:11:05;;;;;;;0.80;0.80;;;18.70;33.00;;;;;;5064981;28;46971;-15
2022/01/20 08:13:32;;;;;;;0.90;0.90;;;18.70;33.10;;;;;;5065034;28;47195;-15
2022/01/20 08:16:00;;;;;;;1.63;1.00;;;18.70;33.10;;;;;;5064660;28;48230;-15
2022/01/20 08:18:27;;;;;;;1.10;1.10;;;18.70;33.00;;;;;;5064531;28;47030;-15
2022/01/20 08:20:54;;;;;;;0.90;0.90;;;18.70;33.10;;;;;;5064791;28;46900;-15
2022/01/20 08:23:20;;;;;;;1.30;1.10;;;18.70;33.10;;;;;;5064779;28;46889;-14
2022/01/20 08:25:47;;;;;;;1.25;1.15;;;18.70;33.00;;;;;;5064321;28;48091;-15
2022/01/20 08:28:14;;;;;;;1.27;1.15;;;18.70;33.00;;;;;;5063989;28;46927;-15
2022/01/20 08:30:41;;;;;;;1.10;1.00;;;18.70;33.00;;;;;;5064441;28;46756;-14
2022/01/20 08:33:09;;;;;;;1.48;1.38;;;18.70;33.10;;;;;;5066815;28;47310;-15
2022/01/20 08:35:36;;;;;;;1.00;1.00;;;18.70;33.10;;;;;;5080933;28;49019;-14
2022/01/20 08:38:03;;;;;;;1.25;1.10;;;18.70;33.00;;;;;;5084800;28;46783;-12
2022/01/20 08:40:30;;;;;;;1.40;1.30;;;18.70;33.10;;;;;;5084505;28;46906;-21
2022/01/20 08:42:57;;;;;;;1.33;1.20;;;18.70;33.10;;;;;;5083540;28;47158;-18
2022/01/20 08:45:26;;;;;;;1.60;1.50;;;18.70;33.10;;;;;;5084012;28;48817;-18
2022/01/20 08:47:54;;;;;;;1.40;1.30;;;18.70;33.10;;;;;;5083314;28;47427;-18
2022/01/20 08:50:23;;;;;;;1.40;1.30;;;18.70;33.10;;;;;;5087297;28;46845;-18
2022/01/20 08:52:49;;;;;;;1.60;1.50;;;18.70;33.10;;;;;;5088130;28;46912;-20
2022/01/20 08:55:16;;;;;;;1.73;1.50;;;18.70;33.20;;;;;;5087707;28;48072;-18
2022/01/20 08:57:43;;;;;;;1.67;1.58;;;18.70;33.20;;;;;;5087586;28;46964;-19
2022/01/20 09:00:10;;;;;;;2.05;1.73;;;18.70;33.10;;;;;;5087709;28;46830;-19
2022/01/20 09:02:37;;;;;;;1.60;1.50;;;18.70;33.20;;;;;;5087812;27;46823;-19
2022/01/20 09:05:04;;;;;;;1.73;1.52;;;18.70;33.20;;;;;;5087938;28;48393;-18
2022/01/20 09:07:33;;;;;;;2.17;1.98;;;18.70;33.20;;;;;;5086563;28;46887;-21
2022/01/20 09:10:00;;;;;;;1.85;1.75;;;18.70;33.20;;;;;;5086882;28;47147;-19
2022/01/20 09:15:31;;;;;;;2.08;1.88;;;18.70;33.30;;;;;;5084795;28;47388;-19
2022/01/20 09:18:00;;;;;;;1.75;1.65;;;18.70;33.20;;;;;;5087780;28;46905;-19
2022/01/20 09:20:26;;;;;;;2.28;2.08;;;18.70;33.20;;;;;;5087578;28;46947;-18
2022/01/20 09:22:55;;;;;;;2.00;1.83;;;18.70;33.20;;;;;;5087500;28;46975;-19
2022/01/20 09:25:22;;;;;;;2.28;2.05;;;18.70;33.20;;;;;;5087386;28;47012;-19
2022/01/20 09:27:50;;;;;;;2.88;2.13;;;18.70;33.20;;;;;;5087040;28;46851;-18
2022/01/20 09:30:19;;;;;;;2.30;2.10;;;18.70;33.20;;;;;;5087242;28;47063;-19
2022/01/20 09:32:56;;;;;;;2.40;1.95;;;18.70;33.20;;;;;;5087169;28;47067;-18
2022/01/20 09:35:23;;;;;;;3.10;1.90;;;18.70;33.30;;;;;;5087199;28;48126;-18
2022/01/20 09:37:50;;;;;;;2.25;2.05;;;18.70;33.20;;;;;;5087065;28;46902;-18
2022/01/20 09:40:18;;;;;;;2.65;2.00;;;18.70;33.20;;;;;;5087287;28;46903;-18
2022/01/20 09:42:44;;;;;;;2.22;2.00;;;18.80;33.20;;;;;;5087440;28;46986;-19
2022/01/20 09:45:11;;;;;;;2.65;1.92;;;18.80;33.20;;;;;;5087386;28;48752;-18
2022/01/20 09:47:38;;;;;;;2.60;2.40;;;18.70;33.20;;;;;;5088532;27;47461;-18
2022/01/20 09:50:05;;;;;;;3.70;2.60;;;18.70;33.20;;;;;;5086421;28;47149;-19
2022/01/20 09:52:32;;;;;;;2.60;2.40;;;18.70;33.30;;;;;;5085727;27;47283;-19
2022/01/20 09:54:59;;;;;;;4.78;2.10;;;18.70;33.30;;;;;;5085844;28;48848;-19
2022/01/20 09:57:27;;;;;;;5.65;2.25;;;18.80;33.30;;;;;;5086983;28;46820;-18
2022/01/20 09:59:54;;;;;;;4.47;2.53;;;18.80;33.30;;;;;;5085577;27;46912;-18
2022/01/20 10:02:21;;;;;;;2.55;2.35;;;18.80;33.20;;;;;;5087074;28;46911;-18
2022/01/20 10:04:47;;;;;;;4.63;2.33;;;18.80;33.20;;;;;;5086579;28;46887;-18
2022/01/20 10:07:15;;;;;;;2.60;2.33;;;18.80;33.20;;;;;;5087195;28;47104;-19
2022/01/20 10:09:44;;;;;;;3.10;2.63;;;18.80;33.80;;;;;;5086627;28;46766;-19
2022/01/20 10:12:12;;;;;;;2.80;2.50;;;18.80;33.20;;;;;;5086864;28;47133;-19
2022/01/20 10:14:41;;;;;;;2.63;2.20;;;18.80;33.20;;;;;;5086527;28;49228;-19
2022/01/20 10:17:15;;;;;;;3.83;2.30;;;18.80;33.30;;;;;;5086342;28;46877;-19
2022/01/20 10:19:43;;;;;;;2.92;2.63;;;18.80;33.20;;;;;;5079031;28;46759;-15
2022/01/20 10:22:15;;;;;;;2.80;2.50;;;18.90;33.20;;;;;;5063655;28;47159;-15
2022/01/20 10:24:57;;;;;;;4.82;2.70;;;18.80;32.80;;;;;;5064403;28;47028;-16
2022/01/20 10:27:24;;;;;;;3.67;2.40;;;18.90;33.30;;;;;;5077227;28;47197;-15
2022/01/20 10:29:57;;;;;;;3.60;2.45;;;18.90;33.20;;;;;;5071273;28;46978;-16
2022/01/20 10:32:24;;;;;;;5.90;2.75;;;18.80;33.20;;;;;;5070489;28;46974;-15
2022/01/20 10:35:01;;;;;;;2.40;2.20;;;18.80;33.30;;;;;;5065630;28;48923;-14
2022/01/20 10:37:28;;;;;;;3.50;2.63;;;18.80;33.40;;;;;;5079349;28;47461;-15
2022/01/20 10:39:54;;;;;;;2.72;2.50;;;18.80;33.40;;;;;;5086360;28;46902;-15
2022/01/20 10:42:24;;;;;;;3.92;2.20;;;18.80;33.40;;;;;;5085268;27;46885;-14
2022/01/20 10:44:52;;;;;;;4.05;2.72;;;18.80;33.40;;;;;;5086187;28;48136;-15
2022/01/20 10:47:21;;;;;;;3.10;2.33;;;18.80;33.40;;;;;;5086569;28;46815;-14
2022/01/20 10:49:48;;;;;;;2.55;2.25;;;18.80;33.40;;;;;;5086112;28;46986;-14
2022/01/20 10:52:16;;;;;;;3.00;2.63;;;18.80;33.40;;;;;;5086256;28;46984;-14
2022/01/20 10:54:44;;;;;;;2.60;2.40;;;18.80;33.40;;;;;;5084880;28;48376;-14
2022/01/20 10:57:11;;;;;;;2.90;2.30;;;18.80;33.40;;;;;;5086004;28;46889;-14
2022/01/20 10:59:49;;;;;;;2.47;2.28;;;18.80;33.40;;;;;;5090982;27;47038;-15
2022/01/20 11:02:17;;;;;;;2.67;2.45;;;18.90;33.30;;;;;;5079409;27;46939;-16
2022/01/20 11:04:46;;;;;;;2.92;2.67;;;18.90;33.20;;;;;;5064437;28;48212;-15
2022/01/20 11:07:12;;;;;;;4.57;2.80;;;18.80;33.40;;;;;;5067638;28;47538;-14
2022/01/20 11:09:42;;;;;;;3.22;2.42;;;18.90;33.70;;;;;;5084583;28;46931;-15
2022/01/20 11:12:11;;;;;;;3.38;2.75;;;18.80;33.60;;;;;;5085419;27;46884;-15
2022/01/20 11:14:38;;;;;;;2.58;2.38;;;18.80;33.70;;;;;;5085526;28;49087;-15
2022/01/20 11:17:04;;;;;;;4.50;2.58;;;18.80;33.80;;;;;;5085521;28;47488;-16
2022/01/20 11:19:35;;;;;;;4.45;2.30;;;18.80;33.80;;;;;;5077433;28;46740;-14
2022/01/20 11:22:07;;;;;;;3.00;2.70;;;18.80;33.80;;;;;;5065613;28;46922;-14
2022/01/20 11:24:34;;;;;;;2.65;2.45;;;18.80;33.80;;;;;;5063563;28;48929;-15
2022/01/20 11:27:01;;;;;;;5.43;3.40;;;18.90;33.90;;;;;;5064376;28;47043;-14
2022/01/20 11:29:40;;;;;;;4.45;2.35;;;18.90;34.00;;;;;;5064931;28;46920;-14
2022/01/20 11:32:16;;;;;;;4.00;2.10;;;18.90;34.00;;;;;;5065689;28;47228;-15
2022/01/20 11:34:53;;;;;;;2.85;2.13;;;18.90;34.10;;;;;;5072898;28;48176;-14
2022/01/20 11:37:23;;;;;;;2.30;2.10;;;18.80;34.10;;;;;;5085361;28;46900;-14
2022/01/20 11:39:51;;;;;;;4.40;2.25;;;18.80;34.10;;;;;;5085173;28;46967;-14
2022/01/20 11:42:22;;;;;;;6.30;2.58;;;18.80;34.10;;;;;;5084986;28;46788;-14
2022/01/20 11:44:49;;;;;;;3.75;2.30;;;18.80;34.30;;;;;;5080925;28;48077;-14
2022/01/20 11:47:16;;;;;;;4.30;2.50;;;18.80;34.30;;;;;;5065016;28;47539;-14
2022/01/20 11:49:44;;;;;;;3.75;2.58;;;18.70;34.30;;;;;;5065036;28;47243;-14
2022/01/20 11:52:11;;;;;;;5.68;2.72;;;18.70;34.40;;;;;;5065749;28;46917;-14
2022/01/20 11:54:41;;;;;;;5.13;2.05;;;18.70;34.50;;;;;;5065188;28;48829;-14
2022/01/20 11:57:10;;;;;;;4.50;2.30;;;18.70;34.50;;;;;;5064957;28;47251;-14
2022/01/20 11:59:41;;;;;;;4.95;2.38;;;18.70;34.60;;;;;;5064723;28;46918;-14
2022/01/20 12:02:08;;;;;;;3.35;2.20;;;18.70;34.60;;;;;;5065317;28;47017;-13
2022/01/20 12:04:35;;;;;;;4.47;2.50;;;18.70;34.60;;;;;;5064897;28;48165;-13
2022/01/20 12:07:02;;;;;;;3.50;2.42;;;18.70;34.70;;;;;;5064629;28;46894;-13
2022/01/20 12:09:30;;;;;;;4.05;2.17;;;18.80;34.70;;;;;;5064482;28;46989;-14
2022/01/20 12:11:58;;;;;;;4.18;2.45;;;18.80;34.70;;;;;;5083662;27;47012;-14
2022/01/20 12:14:35;;;;;;;2.75;2.40;;;18.80;34.60;;;;;;5093382;27;46971;-14
2022/01/20 12:17:06;;;;;;;3.28;2.50;;;18.80;34.70;;;;;;5073141;28;47168;-14
2022/01/20 12:19:33;;;;;;;3.08;2.40;;;18.80;34.60;;;;;;5064215;28;46811;-13
2022/01/20 12:22:00;;;;;;;3.63;2.25;;;18.80;34.60;;;;;;5065017;28;47283;-14
2022/01/20 12:24:26;;;;;;;2.92;1.77;;;18.90;34.60;;;;;;5066103;28;47845;-14
2022/01/20 12:26:53;;;;;;;3.85;2.13;;;18.90;34.50;;;;;;5068323;28;46835;-14
2022/01/20 12:29:23;;;;;;;6.32;2.17;;;18.90;34.50;;;;;;5067807;28;46904;-14
2022/01/20 12:31:53;;;;;;;2.25;1.88;;;18.90;34.40;;;;;;5068089;28;47030;-13
2022/01/20 12:34:20;;;;;;;9.35;2.50;;;19.00;34.50;;;;;;5067637;28;47952;-14
2022/01/20 12:36:53;;;;;;;3.33;2.45;;;18.90;34.50;;;;;;5067903;28;47214;-14
2022/01/20 12:39:25;;;;;;;6.95;2.50;;;18.90;34.40;;;;;;5067966;28;47016;-14
2022/01/20 12:41:56;;;;;;;4.55;2.25;;;18.90;34.40;;;;;;5067275;28;47282;-14
2022/01/20 12:44:24;;;;;;;8.65;2.10;;;18.80;34.50;;;;;;5066138;28;46937;-14
2022/01/20 12:46:51;;;;;;;4.50;2.30;;;18.80;34.60;;;;;;5066769;28;46863;-14
2022/01/20 12:49:19;;;;;;;6.47;2.00;;;18.80;34.70;;;;;;5067163;28;46897;-14
2022/01/20 12:51:46;;;;;;;3.67;2.30;;;18.70;34.80;;;;;;5067821;28;46827;-14
2022/01/20 12:54:16;;;;;;;2.90;2.00;;;18.70;34.90;;;;;;5067744;28;48118;-13
2022/01/20 12:56:44;;;;;;;6.35;2.20;;;18.70;34.90;;;;;;5067367;28;47040;-13
2022/01/20 12:59:11;;;;;;;4.38;2.03;;;18.70;34.90;;;;;;5067124;27;47065;-14
2022/01/20 13:01:40;;;;;;;2.88;2.42;;;18.70;34.90;;;;;;5105364;27;47271;-14
2022/01/20 13:04:08;;;;;;;2.33;2.05;;;18.70;34.90;;;;;;5095251;27;46987;-14
2022/01/20 13:06:35;;;;;;;1.98;1.77;;;18.70;34.80;;;;;;5088430;27;47185;-14
2022/01/20 13:09:05;;;;;;;5.07;2.10;;;18.70;34.80;;;;;;5087804;28;46920;-13
2022/01/20 13:11:36;;;;;;;3.97;2.00;;;18.70;34.90;;;;;;5088202;28;47224;-14
2022/01/20 13:14:03;;;;;;;2.40;2.10;;;18.70;34.80;;;;;;5088006;28;48819;-14
2022/01/20 13:16:31;;;;;;;3.15;2.10;;;18.80;34.80;;;;;;5087821;28;46782;-14
2022/01/20 13:19:01;;;;;;;2.67;2.20;;;18.80;34.80;;;;;;5087581;28;47037;-14
2022/01/20 13:21:44;;;;;;;2.60;1.88;;;18.80;34.70;;;;;;5088139;28;47031;-14
2022/01/20 13:24:12;;;;;;;3.35;2.10;;;18.80;34.70;;;;;;5087259;28;46914;-13
2022/01/20 13:26:47;;;;;;;2.35;1.73;;;18.80;34.60;;;;;;5087303;28;46808;-14
2022/01/20 13:29:14;;;;;;;2.63;2.10;;;18.80;34.60;;;;;;5087519;28;46739;-14
2022/01/20 13:31:40;;;;;;;2.67;1.95;;;18.80;34.70;;;;;;5087832;28;47087;-14
2022/01/20 13:34:10;;;;;;;3.15;2.20;;;18.80;34.70;;;;;;5086482;28;48988;-14
2022/01/20 13:36:41;;;;;;;3.42;2.30;;;18.80;34.70;;;;;;5087030;28;46830;-14